createdAt,value
2022-09-17T00:01:23.368Z,9.57
2022-09-17T00:03:57.316Z,6.90
2022-09-17T00:06:26.313Z,11.30
2022-09-17T00:08:54.732Z,9.53
2022-09-17T00:11:30.670Z,6.03
2022-09-17T00:14:01.716Z,6.90
2022-09-17T00:16:32.142Z,4.53
2022-09-17T00:19:00.482Z,6.50
2022-09-17T00:21:28.755Z,8.17
2022-09-17T00:23:58.411Z,9.87
2022-09-17T00:26:26.777Z,10.13
2022-09-17T00:28:55.157Z,14.17
2022-09-17T00:31:23.142Z,9.20
2022-09-17T00:33:50.503Z,14.10
2022-09-17T00:36:20.530Z,10.30
2022-09-17T00:38:57.376Z,11.07
2022-09-17T00:41:28.548Z,10.53
2022-09-17T00:43:59.322Z,7.90
2022-09-17T00:46:42.578Z,9.20
2022-09-17T00:49:30.840Z,6.53
2022-09-17T00:52:07.324Z,6.73
2022-09-17T00:54:36.895Z,7.67
2022-09-17T00:57:04.211Z,9.73
2022-09-17T00:59:31.365Z,6.80
2022-09-17T01:01:58.687Z,10.83
2022-09-17T01:04:27.634Z,9.00
2022-09-17T01:07:18.735Z,12.33
2022-09-17T01:10:16.808Z,11.37
2022-09-17T01:13:23.310Z,9.80
2022-09-17T01:16:07.301Z,11.57
2022-09-17T01:18:46.973Z,13.77
2022-09-17T01:21:32.051Z,12.37
2022-09-17T01:24:17.778Z,14.90
2022-09-17T01:27:17.658Z,13.53
2022-09-17T01:30:02.716Z,18.53
2022-09-17T01:32:52.995Z,15.07
2022-09-17T01:35:49.756Z,14.33
2022-09-17T01:38:45.467Z,25.67
2022-09-17T01:41:29.546Z,20.27
2022-09-17T01:44:07.975Z,22.13
2022-09-17T01:46:47.855Z,19.23
2022-09-17T01:49:16.784Z,19.13
2022-09-17T01:51:48.707Z,17.77
2022-09-17T01:54:29.879Z,18.67
2022-09-17T01:57:13.312Z,15.03
2022-09-17T01:59:51.502Z,19.83
2022-09-17T02:02:35.870Z,21.13
2022-09-17T02:05:21.285Z,17.27
2022-09-17T02:08:02.762Z,17.80
2022-09-17T02:10:39.396Z,21.47
2022-09-17T02:13:23.481Z,21.20
2022-09-17T02:15:58.742Z,22.73
2022-09-17T02:18:36.373Z,16.50
2022-09-17T02:21:13.227Z,19.27
2022-09-17T02:23:54.670Z,21.07
2022-09-17T02:26:23.247Z,18.93
2022-09-17T02:29:05.732Z,18.40
2022-09-17T02:31:33.112Z,16.97
2022-09-17T02:34:03.251Z,22.43
2022-09-17T02:36:32.206Z,32.30
2022-09-17T02:39:02.294Z,18.40
2022-09-17T02:41:54.814Z,18.50
2022-09-17T02:45:07.617Z,15.70
2022-09-17T02:47:51.699Z,17.17
2022-09-17T02:50:35.613Z,17.37
2022-09-17T02:53:20.157Z,17.90
2022-09-17T02:56:20.557Z,25.30
2022-09-17T02:59:12.399Z,25.30
2022-09-17T03:01:49.456Z,12.23
2022-09-17T03:04:18.951Z,15.27
2022-09-17T03:06:47.439Z,19.83
2022-09-17T03:09:17.492Z,18.70
2022-09-17T03:11:44.724Z,17.90
2022-09-17T03:14:11.742Z,29.03
2022-09-17T03:16:38.757Z,18.07
2022-09-17T03:19:06.186Z,18.40
2022-09-17T03:21:33.198Z,18.93
2022-09-17T03:24:00.448Z,30.17
2022-09-17T03:26:27.770Z,35.50
2022-09-17T03:28:54.780Z,22.47
2022-09-17T03:31:21.895Z,21.90
2022-09-17T03:33:50.217Z,25.70
2022-09-17T03:36:17.515Z,25.40
2022-09-17T03:38:44.963Z,21.43
2022-09-17T03:41:12.167Z,26.03
2022-09-17T03:43:39.975Z,17.80
2022-09-17T03:46:07.474Z,22.57
2022-09-17T03:48:37.270Z,22.63
2022-09-17T03:51:04.711Z,13.27
2022-09-17T03:53:33.484Z,15.17
2022-09-17T03:56:02.470Z,26.80
2022-09-17T03:58:30.915Z,21.23
2022-09-17T04:00:58.370Z,24.73
2022-09-17T04:03:27.340Z,23.17
2022-09-17T04:05:54.993Z,27.67
2022-09-17T04:08:22.244Z,23.37
2022-09-17T04:10:49.331Z,15.03
2022-09-17T04:13:17.277Z,17.60
2022-09-17T04:15:45.976Z,18.87
2022-09-17T04:18:13.878Z,13.90
2022-09-17T04:20:41.551Z,12.90
2022-09-17T04:23:12.102Z,17.40
2022-09-17T04:25:39.707Z,16.07
2022-09-17T04:28:07.667Z,15.03
2022-09-17T04:30:34.887Z,17.50
2022-09-17T04:33:02.168Z,16.30
2022-09-17T04:35:29.427Z,13.63
2022-09-17T04:37:58.320Z,20.90
2022-09-17T04:40:27.118Z,14.97
2022-09-17T04:42:56.273Z,16.70
2022-09-17T04:45:24.046Z,20.83
2022-09-17T04:47:51.277Z,12.70
2022-09-17T04:50:19.351Z,15.70
2022-09-17T04:52:47.425Z,16.03
2022-09-17T04:55:15.715Z,11.23
2022-09-17T04:57:51.235Z,14.27
2022-09-17T05:00:20.152Z,18.70
2022-09-17T05:02:50.267Z,15.00
2022-09-17T05:05:19.103Z,12.30
2022-09-17T05:07:46.355Z,16.53
2022-09-17T05:10:15.901Z,12.80
2022-09-17T05:12:52.744Z,17.80
2022-09-17T05:15:20.510Z,18.67
2022-09-17T05:17:47.816Z,15.10
2022-09-17T05:20:16.264Z,16.70
2022-09-17T05:22:48.477Z,13.10
2022-09-17T05:25:18.172Z,23.03
2022-09-17T05:27:45.789Z,17.03
2022-09-17T05:30:13.632Z,10.90
2022-09-17T05:32:41.200Z,19.43
2022-09-17T05:35:09.647Z,13.53
2022-09-17T05:37:37.637Z,12.47
2022-09-17T05:40:08.516Z,12.87
2022-09-17T05:42:36.208Z,12.60
2022-09-17T05:45:03.955Z,18.93
2022-09-17T05:47:31.076Z,10.23
2022-09-17T05:49:58.155Z,13.73
2022-09-17T05:52:29.064Z,16.90
2022-09-17T05:54:56.827Z,9.40
2022-09-17T05:57:24.517Z,16.87
2022-09-17T05:59:51.583Z,8.23
2022-09-17T06:02:18.612Z,9.23
2022-09-17T06:04:46.583Z,7.23
2022-09-17T06:07:13.705Z,8.20
2022-09-17T06:09:41.187Z,14.37
2022-09-17T06:12:08.644Z,4.97
2022-09-17T06:14:35.694Z,10.77
2022-09-17T06:17:02.672Z,10.33
2022-09-17T06:19:29.694Z,11.63
2022-09-17T06:21:56.949Z,11.57
2022-09-17T06:24:24.154Z,13.57
2022-09-17T06:26:52.653Z,12.10
2022-09-17T06:29:22.572Z,8.20
2022-09-17T06:31:50.025Z,17.73
2022-09-17T06:34:18.052Z,7.70
2022-09-17T06:36:45.449Z,13.80
2022-09-17T06:39:13.384Z,10.93
2022-09-17T06:41:43.313Z,11.37
2022-09-17T06:44:10.759Z,12.27
2022-09-17T06:46:37.876Z,9.33
2022-09-17T06:49:05.085Z,12.80
2022-09-17T06:51:32.148Z,11.53
2022-09-17T06:53:59.424Z,13.63
2022-09-17T06:56:26.573Z,11.37
2022-09-17T06:58:54.894Z,11.90
2022-09-17T07:01:24.511Z,15.10
2022-09-17T07:03:51.767Z,4.83
2022-09-17T07:06:18.806Z,11.80
2022-09-17T07:08:47.162Z,19.47
2022-09-17T07:11:16.230Z,10.40
2022-09-17T07:13:43.656Z,14.37
2022-09-17T07:16:11.214Z,8.77
2022-09-17T07:18:39.195Z,10.50
2022-09-17T07:21:07.948Z,12.53
2022-09-17T07:23:37.314Z,14.93
2022-09-17T07:26:08.478Z,17.30
2022-09-17T07:28:35.786Z,7.93
2022-09-17T07:31:09.364Z,17.07
2022-09-17T07:33:39.050Z,11.67
2022-09-17T07:36:10.715Z,10.27
2022-09-17T07:38:41.746Z,6.27
2022-09-17T07:41:15.897Z,11.90
2022-09-17T07:43:44.068Z,14.30
2022-09-17T07:46:18.024Z,13.37
2022-09-17T07:48:46.651Z,7.57
2022-09-17T07:51:23.288Z,8.30
2022-09-17T07:53:55.638Z,12.37
2022-09-17T07:56:23.981Z,12.20
2022-09-17T07:58:51.953Z,11.03
2022-09-17T08:01:21.307Z,7.63
2022-09-17T08:03:51.682Z,7.30
2022-09-17T08:06:22.989Z,10.30
2022-09-17T08:08:53.387Z,4.67
2022-09-17T08:11:45.057Z,6.07
2022-09-17T08:14:14.920Z,8.70
2022-09-17T08:16:42.708Z,8.93
2022-09-17T08:19:12.940Z,9.97
2022-09-17T08:21:40.155Z,7.17
2022-09-17T08:24:07.458Z,8.93
2022-09-17T08:26:36.683Z,9.50
2022-09-17T08:29:07.068Z,8.87
2022-09-17T08:31:34.276Z,9.50
2022-09-17T08:34:01.485Z,11.17
2022-09-17T08:36:28.805Z,12.23
2022-09-17T08:38:56.920Z,11.67
2022-09-17T08:41:58.087Z,14.27
2022-09-17T08:44:32.707Z,13.83
2022-09-17T08:47:06.402Z,10.70
2022-09-17T08:49:48.933Z,12.17
2022-09-17T08:52:27.761Z,7.67
2022-09-17T08:54:54.803Z,4.83
2022-09-17T08:57:40.279Z,7.43
2022-09-17T09:00:16.545Z,7.67
2022-09-17T09:03:05.319Z,8.03
2022-09-17T09:05:54.112Z,5.57
2022-09-17T09:09:06.011Z,4.53
2022-09-17T09:11:34.004Z,8.57
2022-09-17T09:14:12.208Z,10.07
2022-09-17T09:16:45.952Z,10.83
2022-09-17T09:19:30.503Z,10.70
2022-09-17T09:22:36.547Z,12.33
2022-09-17T09:25:27.266Z,13.67
2022-09-17T09:28:20.156Z,12.83
2022-09-17T09:31:26.538Z,6.20
2022-09-17T09:33:55.431Z,11.07
2022-09-17T09:36:22.677Z,12.27
2022-09-17T09:38:59.182Z,16.30
2022-09-17T09:41:40.824Z,9.33
2022-09-17T09:44:14.034Z,15.20
2022-09-17T09:47:21.209Z,8.83
2022-09-17T09:50:09.226Z,7.43
2022-09-17T09:52:51.319Z,10.90
2022-09-17T09:55:50.263Z,12.87
2022-09-17T09:58:38.530Z,7.03
2022-09-17T10:01:30.549Z,10.17
2022-09-17T10:04:37.401Z,6.90
2022-09-17T10:07:08.175Z,3.67
2022-09-17T10:09:38.332Z,7.73
2022-09-17T10:12:11.585Z,8.00
2022-09-17T10:14:41.678Z,5.47
2022-09-17T10:17:20.866Z,2.37
2022-09-17T10:20:00.198Z,7.90
2022-09-17T10:22:34.372Z,4.57
2022-09-17T10:25:03.472Z,11.07
2022-09-17T10:27:31.195Z,9.53
2022-09-17T10:30:03.304Z,13.90
2022-09-17T10:32:30.360Z,14.07
2022-09-17T10:35:16.414Z,11.17
2022-09-17T10:37:46.136Z,12.90
2022-09-17T10:40:19.296Z,7.43
2022-09-17T10:43:12.218Z,7.55
2022-09-17T10:45:54.671Z,10.47
2022-09-17T10:48:22.785Z,8.33
2022-09-17T10:50:54.401Z,9.10
2022-09-17T10:53:25.076Z,11.23
2022-09-17T10:56:22.074Z,11.70
2022-09-17T10:59:29.972Z,8.82
2022-09-17T11:02:30.991Z,11.10
2022-09-17T11:05:27.284Z,13.97
2022-09-17T11:08:18.226Z,11.77
2022-09-17T11:10:54.170Z,11.73
2022-09-17T11:13:45.947Z,16.23
2022-09-17T11:16:38.742Z,13.27
2022-09-17T11:19:18.251Z,10.60
2022-09-17T11:22:18.905Z,12.13
2022-09-17T11:25:24.493Z,11.70
2022-09-17T11:28:34.752Z,9.77
2022-09-17T11:31:31.338Z,15.17
2022-09-17T11:34:22.395Z,17.05
2022-09-17T11:37:11.251Z,11.88
2022-09-17T11:39:55.781Z,14.00
2022-09-17T11:42:31.862Z,10.15
2022-09-17T11:45:31.239Z,11.48
2022-09-17T11:48:16.946Z,9.13
2022-09-17T11:50:45.482Z,9.60
2022-09-17T11:53:42.456Z,8.43
2022-09-17T11:56:49.568Z,10.10
2022-09-17T11:59:45.204Z,8.87
2022-09-17T12:02:50.934Z,6.63
2022-09-17T12:05:46.244Z,9.47
2022-09-17T12:08:54.970Z,5.37
2022-09-17T12:11:52.171Z,9.80
2022-09-17T12:14:59.424Z,9.50
2022-09-17T12:17:42.764Z,12.13
2022-09-17T12:20:28.603Z,9.23
2022-09-17T12:22:58.615Z,11.10
2022-09-17T12:25:34.110Z,9.77
2022-09-17T12:28:10.354Z,10.90
2022-09-17T12:30:47.206Z,12.87
2022-09-17T12:33:35.002Z,13.60
2022-09-17T12:36:37.596Z,14.63
2022-09-17T12:39:23.765Z,12.20
2022-09-17T12:42:21.619Z,6.97
2022-09-17T12:45:18.299Z,12.17
2022-09-17T12:48:23.549Z,11.13
2022-09-17T12:51:22.359Z,12.87
2022-09-17T12:54:35.613Z,16.63
2022-09-17T12:57:20.550Z,20.33
2022-09-17T13:00:15.809Z,15.30
2022-09-17T13:03:02.292Z,16.50
2022-09-17T13:06:03.970Z,11.53
2022-09-17T13:09:01.082Z,11.73
2022-09-17T13:12:24.246Z,12.47
2022-09-17T13:14:57.033Z,8.13
2022-09-17T13:17:46.654Z,8.10
2022-09-17T13:21:05.713Z,9.20
2022-09-17T13:23:44.912Z,11.83
2022-09-17T13:26:19.468Z,5.70
2022-09-17T13:28:50.136Z,7.17
2022-09-17T13:31:23.847Z,8.40
2022-09-17T13:33:56.171Z,5.03
2022-09-17T13:36:46.920Z,6.23
2022-09-17T13:39:45.712Z,7.27
2022-09-17T13:42:22.072Z,8.30
2022-09-17T13:45:13.268Z,8.00
2022-09-17T13:48:04.129Z,7.20
2022-09-17T13:50:37.778Z,4.13
2022-09-17T13:53:13.746Z,7.53
2022-09-17T13:55:58.554Z,6.93
2022-09-17T13:58:32.139Z,7.50
2022-09-17T14:01:06.134Z,12.03
2022-09-17T14:03:40.669Z,8.07
2022-09-17T14:06:11.272Z,11.60
2022-09-17T14:08:44.231Z,6.33
2022-09-17T14:11:26.981Z,9.17
2022-09-17T14:14:06.489Z,9.47
2022-09-17T14:16:50.416Z,12.73
2022-09-17T14:19:51.338Z,9.27
2022-09-17T14:22:26.072Z,8.20
2022-09-17T14:24:55.123Z,8.13
2022-09-17T14:27:42.516Z,4.27
2022-09-17T14:30:23.366Z,4.97
2022-09-17T14:33:11.383Z,8.70
2022-09-17T14:35:57.551Z,12.90
2022-09-17T14:38:44.670Z,8.80
2022-09-17T14:41:11.702Z,8.47
2022-09-17T14:43:57.417Z,10.03
2022-09-17T14:47:13.472Z,8.93
2022-09-17T14:49:41.069Z,9.00
2022-09-17T14:52:32.701Z,6.30
2022-09-17T14:55:16.815Z,3.77
2022-09-17T14:57:46.677Z,6.20
2022-09-17T15:00:26.314Z,3.87
2022-09-17T15:02:56.060Z,5.13
2022-09-17T15:05:31.839Z,4.47
2022-09-17T15:08:28.930Z,2.87
2022-09-17T15:10:59.485Z,5.63
2022-09-17T15:13:33.060Z,8.40
2022-09-17T15:16:07.675Z,7.73
2022-09-17T15:18:41.531Z,11.03
2022-09-17T15:21:43.370Z,6.33
2022-09-17T15:25:06.527Z,6.57
2022-09-17T15:27:43.508Z,5.23
2022-09-17T15:30:20.846Z,7.13
2022-09-17T15:32:54.098Z,5.33
2022-09-17T15:35:30.020Z,6.70
2022-09-17T15:38:22.173Z,7.00
2022-09-17T15:40:50.471Z,8.30
2022-09-17T15:43:34.011Z,7.00
2022-09-17T15:46:26.910Z,6.37
2022-09-17T15:49:00.297Z,11.53
2022-09-17T15:51:32.436Z,9.17
2022-09-17T15:54:30.486Z,8.27
2022-09-17T15:57:01.506Z,9.03
2022-09-17T15:59:32.051Z,7.13
2022-09-17T16:02:02.021Z,7.43
2022-09-17T16:04:33.723Z,7.77
2022-09-17T16:07:08.267Z,9.43
2022-09-17T16:09:47.106Z,9.77
2022-09-17T16:12:23.837Z,7.87
2022-09-17T16:14:56.916Z,4.07
2022-09-17T16:17:29.389Z,9.23
2022-09-17T16:19:56.924Z,7.20
2022-09-17T16:22:24.078Z,5.83
2022-09-17T16:24:51.135Z,7.37
2022-09-17T16:27:25.317Z,10.43
2022-09-17T16:30:00.139Z,9.53
2022-09-17T16:32:27.167Z,7.63
2022-09-17T16:34:54.125Z,5.63
2022-09-17T16:37:21.195Z,9.17
2022-09-17T16:39:48.342Z,6.10
2022-09-17T16:42:15.374Z,9.43
2022-09-17T16:44:42.390Z,6.97
2022-09-17T16:47:09.454Z,7.83
2022-09-17T16:49:36.603Z,9.37
2022-09-17T16:52:03.649Z,9.47
2022-09-17T16:54:30.689Z,10.97
2022-09-17T16:57:00.987Z,7.40
2022-09-17T16:59:28.089Z,8.53
2022-09-17T17:01:55.123Z,10.43
2022-09-17T17:04:22.727Z,11.50
2022-09-17T17:06:49.880Z,17.70
2022-09-17T17:09:16.922Z,15.70
2022-09-17T17:11:44.112Z,8.67
2022-09-17T17:14:14.678Z,8.23
2022-09-17T17:16:43.720Z,11.60
2022-09-17T17:19:11.057Z,10.13
2022-09-17T17:21:38.248Z,15.13
2022-09-17T17:24:06.859Z,18.83
2022-09-17T17:26:34.823Z,13.77
2022-09-17T17:29:02.633Z,11.97
2022-09-17T17:31:29.885Z,8.53
2022-09-17T17:33:58.107Z,10.70
2022-09-17T17:36:25.096Z,10.33
2022-09-17T17:38:57.708Z,13.03
2022-09-17T17:41:26.443Z,10.40
2022-09-17T17:43:55.262Z,7.07
2022-09-17T17:46:23.390Z,12.37
2022-09-17T17:48:51.365Z,9.53
2022-09-17T17:51:20.563Z,13.13
2022-09-17T17:53:47.701Z,11.00
2022-09-17T17:56:15.234Z,9.33
2022-09-17T17:58:42.628Z,9.53
2022-09-17T18:01:23.194Z,8.57
2022-09-17T18:03:50.495Z,13.40
2022-09-17T18:06:17.596Z,12.17
2022-09-17T18:08:54.067Z,9.10
2022-09-17T18:11:22.773Z,13.67
2022-09-17T18:13:55.521Z,11.73
2022-09-17T18:16:24.129Z,11.90
2022-09-17T18:18:51.633Z,9.20
2022-09-17T18:21:24.160Z,16.43
2022-09-17T18:23:51.685Z,9.57
2022-09-17T18:26:27.761Z,10.30
2022-09-17T18:28:55.187Z,7.20
2022-09-17T18:31:34.792Z,7.73
2022-09-17T18:34:08.098Z,5.60
2022-09-17T18:36:37.121Z,11.93
2022-09-17T18:39:44.566Z,9.70
2022-09-17T18:41:54.445Z,9.93
2022-09-17T18:44:23.082Z,9.43
2022-09-17T18:46:51.401Z,14.67
2022-09-17T18:49:18.716Z,8.23
2022-09-17T18:51:45.966Z,12.47
2022-09-17T18:54:13.515Z,14.40
2022-09-17T18:56:41.876Z,15.83
2022-09-17T18:59:09.923Z,13.70
2022-09-17T19:01:37.709Z,15.60
2022-09-17T19:04:07.700Z,6.53
2022-09-17T19:06:35.700Z,12.93
2022-09-17T19:09:04.797Z,14.77
2022-09-17T19:11:32.332Z,14.00
2022-09-17T19:14:02.613Z,12.20
2022-09-17T19:16:29.917Z,16.57
2022-09-17T19:18:58.419Z,13.03
2022-09-17T19:21:27.184Z,16.33
2022-09-17T19:23:58.037Z,20.10
2022-09-17T19:26:27.297Z,12.83
2022-09-17T19:29:03.311Z,20.23
2022-09-17T19:31:30.614Z,16.10
2022-09-17T19:33:59.181Z,12.90
2022-09-17T19:36:27.001Z,13.23
2022-09-17T19:38:54.480Z,14.57
2022-09-17T19:41:23.611Z,12.70
2022-09-17T19:43:55.355Z,12.67
2022-09-17T19:46:25.520Z,12.07
2022-09-17T19:48:55.444Z,18.87
2022-09-17T19:51:25.700Z,12.33
2022-09-17T19:53:53.839Z,12.10
2022-09-17T19:56:24.548Z,12.17
2022-09-17T19:58:52.500Z,12.23
2022-09-17T20:01:20.524Z,11.93
2022-09-17T20:03:51.131Z,19.67
2022-09-17T20:06:20.925Z,19.53
2022-09-17T20:08:50.763Z,15.20
2022-09-17T20:11:20.730Z,22.53
2022-09-17T20:13:48.009Z,18.63
2022-09-17T20:16:21.606Z,13.13
2022-09-17T20:18:49.840Z,13.43
2022-09-17T20:21:25.039Z,18.10
2022-09-17T20:23:52.489Z,15.87
2022-09-17T20:26:20.710Z,18.20
2022-09-17T20:28:50.371Z,14.93
2022-09-17T20:31:23.366Z,10.77
2022-09-17T20:33:59.230Z,11.97
2022-09-17T20:36:31.085Z,16.00
2022-09-17T20:39:21.127Z,11.43
2022-09-17T20:41:46.016Z,8.93
2022-09-17T20:44:13.188Z,12.30
2022-09-17T20:46:40.589Z,16.57
2022-09-17T20:49:07.859Z,11.73
2022-09-17T20:51:35.577Z,12.80
2022-09-17T20:54:03.724Z,12.27
2022-09-17T20:56:34.455Z,19.67
2022-09-17T20:59:15.291Z,14.67
2022-09-17T21:01:45.441Z,13.90
2022-09-17T21:04:16.595Z,15.23
2022-09-17T21:06:44.555Z,13.53
2022-09-17T21:09:16.715Z,14.33
2022-09-17T21:11:46.595Z,9.97
2022-09-17T21:14:15.934Z,12.80
2022-09-17T21:16:43.585Z,12.47
2022-09-17T21:19:13.057Z,13.27
2022-09-17T21:21:40.151Z,14.67
2022-09-17T21:24:10.225Z,11.00
2022-09-17T21:26:37.844Z,11.90
2022-09-17T21:29:05.386Z,9.77
2022-09-17T21:31:35.881Z,12.63
2022-09-17T21:34:12.695Z,11.47
2022-09-17T21:36:41.563Z,17.20
2022-09-17T21:39:14.819Z,12.93
2022-09-17T21:41:43.281Z,14.80
2022-09-17T21:44:13.867Z,17.40
2022-09-17T21:46:41.951Z,19.57
2022-09-17T21:49:09.747Z,13.30
2022-09-17T21:51:42.802Z,15.23
2022-09-17T21:54:13.218Z,15.77
2022-09-17T21:56:40.432Z,16.70
2022-09-17T21:59:11.156Z,17.20
2022-09-17T22:01:43.652Z,15.87
2022-09-17T22:04:16.621Z,15.50
2022-09-17T22:06:44.692Z,14.23
2022-09-17T22:09:19.841Z,16.70
2022-09-17T22:11:47.607Z,21.77
2022-09-17T22:14:20.811Z,19.47
2022-09-17T22:16:52.674Z,21.80
2022-09-17T22:19:21.282Z,15.77
2022-09-17T22:21:51.722Z,15.17
2022-09-17T22:24:21.153Z,15.43
2022-09-17T22:26:56.538Z,16.40
2022-09-17T22:29:24.965Z,15.10
2022-09-17T22:31:51.951Z,12.93
2022-09-17T22:34:21.342Z,16.20
2022-09-17T22:36:49.351Z,10.07
2022-09-17T22:39:19.085Z,11.60
2022-09-17T22:41:46.270Z,13.43
2022-09-17T22:44:17.747Z,14.83
2022-09-17T22:46:48.169Z,15.27
2022-09-17T22:49:16.222Z,12.93
2022-09-17T22:51:44.725Z,10.73
2022-09-17T22:54:14.286Z,12.53
2022-09-17T22:56:42.165Z,9.33
2022-09-17T22:59:09.749Z,10.23
2022-09-17T23:01:39.083Z,8.60
2022-09-17T23:04:06.581Z,11.47
2022-09-17T23:06:38.260Z,10.90
2022-09-17T23:09:06.136Z,11.00
2022-09-17T23:11:39.133Z,9.80
2022-09-17T23:14:11.130Z,10.80
2022-09-17T23:16:42.879Z,19.40
2022-09-17T23:19:10.574Z,15.27
2022-09-17T23:21:38.680Z,8.27
2022-09-17T23:24:06.525Z,11.40
2022-09-17T23:26:33.645Z,12.83
2022-09-17T23:29:04.913Z,8.13
2022-09-17T23:31:34.911Z,10.37
2022-09-17T23:34:03.940Z,12.13
2022-09-17T23:36:34.980Z,10.60
2022-09-17T23:39:03.711Z,8.30
2022-09-17T23:41:36.779Z,11.50
2022-09-17T23:44:12.102Z,8.43
2022-09-17T23:46:41.989Z,7.77
2022-09-17T23:49:12.195Z,7.13
2022-09-17T23:51:39.184Z,7.37
2022-09-17T23:54:07.294Z,6.70
2022-09-17T23:56:35.366Z,7.10
2022-09-17T23:59:02.852Z,7.07
